Time;durP1;ratioP1;P1;durP2;ratioP2;P2;SDS_P1;SDS_P2;PMS_P1;PMS_P2;Temp;Humidity;BMP_temperature;BMP_pressure;BME280_temperature;BME280_humidity;BME280_pressure;Samples;Min_cycle;Max_cycle;Signal;HPM_P1;HPM_P2
2022/12/24 00:01:27;;;;;;;114.83;50.33;;;;;;;;;;5054497;28;20189;-80
2022/12/24 00:03:53;;;;;;;99.83;46.00;;;;;;;;;;5059104;28;20216;-81
2022/12/24 00:06:20;;;;;;;106.67;46.87;;;;;;;;;;5055385;28;20182;-80
2022/12/24 00:08:46;;;;;;;90.17;44.83;;;;;;;;;;5065783;28;20219;-81
2022/12/24 00:11:12;;;;;;;80.13;42.77;;;;;;;;;;5052844;28;20165;-78
2022/12/24 00:13:39;;;;;;;85.30;44.77;;;;;;;;;;5065531;28;20651;-79
2022/12/24 00:16:05;;;;;;;75.90;39.70;;;;;;;;;;5061283;28;20635;-80
2022/12/24 00:18:31;;;;;;;84.23;43.90;;;;;;;;;;5059165;28;20189;-79
2022/12/24 00:20:57;;;;;;;133.50;51.93;;;;;;;;;;5071213;28;20288;-79
2022/12/24 00:23:24;;;;;;;277.00;61.47;;;;;;;;;;5070910;28;20626;-78
2022/12/24 00:25:50;;;;;;;133.27;52.07;;;;;;;;;;5069784;28;20629;-78
2022/12/24 00:28:16;;;;;;;136.37;50.13;;;;;;;;;;5070961;28;20262;-79
2022/12/24 00:30:42;;;;;;;96.50;45.77;;;;;;;;;;5073411;28;20198;-78
2022/12/24 00:33:09;;;;;;;72.20;40.60;;;;;;;;;;5072451;28;20187;-79
2022/12/24 00:35:38;;;;;;;108.17;46.23;;;;;;;;;;5057678;28;20244;-80
2022/12/24 00:38:04;;;;;;;90.67;42.93;;;;;;;;;;5062089;28;20181;-81
2022/12/24 00:40:30;;;;;;;86.60;42.80;;;;;;;;;;5067848;28;20181;-82
2022/12/24 00:42:56;;;;;;;82.33;42.20;;;;;;;;;;5066064;28;20267;-80
2022/12/24 00:45:23;;;;;;;76.10;40.00;;;;;;;;;;5071284;28;20173;-80
2022/12/24 00:47:49;;;;;;;91.53;43.00;;;;;;;;;;5073044;28;20212;-78
2022/12/24 00:50:15;;;;;;;168.47;54.33;;;;;;;;;;5056477;28;20182;-79
2022/12/24 00:52:41;;;;;;;102.20;46.30;;;;;;;;;;5059136;28;20217;-81
2022/12/24 00:55:07;;;;;;;102.47;45.20;;;;;;;;;;5067306;28;20205;-79
2022/12/24 00:57:34;;;;;;;90.17;45.50;;;;;;;;;;5071264;28;20670;-82
2022/12/24 01:00:00;;;;;;;93.27;46.53;;;;;;;;;;5072272;28;20535;-80
2022/12/24 01:02:26;;;;;;;134.50;53.43;;;;;;;;;;5054478;28;20174;-79
2022/12/24 01:05:10;;;;;;;163.73;59.30;;;;;;;;;;5071581;28;20184;-79
2022/12/24 01:07:36;;;;;;;129.33;53.67;;;;;;;;;;5073577;28;20261;-79
2022/12/24 01:10:03;;;;;;;133.47;54.13;;;;;;;;;;5069990;28;20550;-79
2022/12/24 01:12:29;;;;;;;114.33;51.93;;;;;;;;;;5074790;28;20710;-81
2022/12/24 01:14:55;;;;;;;104.67;49.73;;;;;;;;;;5070845;28;20207;-79
2022/12/24 01:17:21;;;;;;;166.57;58.90;;;;;;;;;;5056544;28;20634;-80
2022/12/24 01:19:47;;;;;;;150.43;56.97;;;;;;;;;;5069151;28;20268;-78
2022/12/24 01:22:13;;;;;;;108.17;50.13;;;;;;;;;;5073556;28;20649;-80
2022/12/24 01:24:40;;;;;;;142.53;53.80;;;;;;;;;;5081100;28;20268;-81
2022/12/24 01:27:06;;;;;;;114.43;50.93;;;;;;;;;;5070347;28;20652;-80
2022/12/24 01:29:32;;;;;;;102.10;47.17;;;;;;;;;;5074383;28;20188;-81
2022/12/24 01:31:58;;;;;;;149.67;58.27;;;;;;;;;;5071157;28;20184;-81
2022/12/24 01:34:24;;;;;;;113.50;50.73;;;;;;;;;;5073106;28;20538;-78
2022/12/24 01:36:50;;;;;;;105.87;51.27;;;;;;;;;;5069228;28;20649;-80
2022/12/24 01:39:16;;;;;;;147.77;54.47;;;;;;;;;;5058197;28;20224;-79
2022/12/24 01:44:32;;;;;;;93.80;46.27;;;;;;;;;;5075656;28;20216;-82
2022/12/24 01:47:02;;;;;;;111.83;48.27;;;;;;;;;;5061063;28;20252;-79
2022/12/24 01:49:28;;;;;;;139.63;51.77;;;;;;;;;;5067619;28;20221;-78
2022/12/24 01:51:58;;;;;;;93.27;44.63;;;;;;;;;;5068305;28;20260;-79
2022/12/24 01:54:33;;;;;;;80.13;42.67;;;;;;;;;;5055509;28;20189;-82
2022/12/24 01:57:10;;;;;;;159.53;54.03;;;;;;;;;;5054767;28;20513;-78
2022/12/24 01:59:37;;;;;;;74.53;39.43;;;;;;;;;;5069135;28;20255;-79
2022/12/24 02:02:03;;;;;;;105.07;42.80;;;;;;;;;;5072408;28;20550;-80
2022/12/24 02:04:35;;;;;;;102.33;45.57;;;;;;;;;;5066707;28;20212;-79
2022/12/24 02:07:01;;;;;;;135.57;50.63;;;;;;;;;;5063339;28;20582;-81
2022/12/24 02:09:27;;;;;;;123.60;49.20;;;;;;;;;;5070561;28;20259;-82
2022/12/24 02:11:54;;;;;;;168.23;53.30;;;;;;;;;;5068731;28;20170;-79
2022/12/24 02:14:20;;;;;;;107.53;48.10;;;;;;;;;;5072980;28;20201;-79
2022/12/24 02:16:52;;;;;;;211.67;60.10;;;;;;;;;;5073397;28;20189;-82
2022/12/24 02:19:33;;;;;;;100.70;47.33;;;;;;;;;;5063802;28;20190;-79
2022/12/24 02:22:15;;;;;;;145.33;52.93;;;;;;;;;;5060939;28;20194;-78
2022/12/24 02:24:59;;;;;;;132.90;50.87;;;;;;;;;;5076321;28;20186;-81
2022/12/24 02:27:24;;;;;;;78.00;39.77;;;;;;;;;;5079199;28;20182;-77
2022/12/24 02:29:53;;;;;;;137.77;50.07;;;;;;;;;;5051969;28;20189;-80
2022/12/24 02:32:26;;;;;;;99.30;46.10;;;;;;;;;;5060406;28;20170;-78
2022/12/24 02:35:00;;;;;;;89.27;42.13;;;;;;;;;;5069223;28;20189;-79
2022/12/24 02:37:47;;;;;;;130.60;50.47;;;;;;;;;;5072078;28;20226;-82
2022/12/24 02:40:16;;;;;;;98.37;44.40;;;;;;;;;;5064446;28;20209;-79
2022/12/24 02:42:44;;;;;;;100.07;45.53;;;;;;;;;;5056674;28;20272;-80
2022/12/24 02:45:14;;;;;;;118.17;47.00;;;;;;;;;;5071949;28;20264;-78
2022/12/24 02:47:41;;;;;;;283.33;60.20;;;;;;;;;;5053335;28;20217;-80
2022/12/24 02:50:08;;;;;;;132.70;47.90;;;;;;;;;;5053735;28;20197;-81
2022/12/24 02:52:41;;;;;;;109.93;46.77;;;;;;;;;;5055713;28;20174;-81
2022/12/24 02:55:11;;;;;;;143.40;50.00;;;;;;;;;;5062129;28;20568;-79
2022/12/24 02:57:43;;;;;;;124.10;49.73;;;;;;;;;;5075248;28;20256;-77
2022/12/24 03:00:12;;;;;;;108.57;44.17;;;;;;;;;;5064477;28;20215;-77
2022/12/24 03:02:56;;;;;;;113.13;46.47;;;;;;;;;;5062633;28;20192;-77
2022/12/24 03:05:41;;;;;;;112.53;45.67;;;;;;;;;;5083980;28;20173;-77
2022/12/24 03:08:22;;;;;;;94.73;40.30;;;;;;;;;;5076903;28;20208;-78
2022/12/24 03:10:48;;;;;;;91.40;39.07;;;;;;;;;;5067330;28;20193;-79
2022/12/24 03:13:15;;;;;;;89.53;40.57;;;;;;;;;;5055123;28;20188;-82
2022/12/24 03:15:42;;;;;;;116.80;41.83;;;;;;;;;;5057712;28;20185;-80
2022/12/24 03:18:10;;;;;;;94.27;40.93;;;;;;;;;;5070524;28;20629;-79
2022/12/24 03:20:57;;;;;;;95.30;40.37;;;;;;;;;;5067871;28;20177;-80
2022/12/24 03:23:24;;;;;;;96.60;41.20;;;;;;;;;;5058115;28;20173;-83
2022/12/24 03:25:50;;;;;;;128.97;46.40;;;;;;;;;;5064395;28;20186;-81
2022/12/24 03:28:17;;;;;;;168.40;53.40;;;;;;;;;;5061885;28;20669;-81
2022/12/24 03:30:44;;;;;;;138.67;48.53;;;;;;;;;;5068117;28;20235;-81
2022/12/24 03:33:11;;;;;;;106.67;45.40;;;;;;;;;;5066871;28;20185;-82
2022/12/24 03:35:37;;;;;;;243.80;57.77;;;;;;;;;;5068751;28;20898;-81
2022/12/24 03:38:03;;;;;;;164.30;50.03;;;;;;;;;;5067793;28;20185;-82
2022/12/24 03:40:29;;;;;;;190.83;54.53;;;;;;;;;;5053589;28;20297;-81
2022/12/24 03:42:55;;;;;;;167.53;52.77;;;;;;;;;;5058843;28;20185;-79
2022/12/24 03:45:21;;;;;;;86.27;40.87;;;;;;;;;;5071003;28;20185;-81
2022/12/24 03:47:47;;;;;;;107.53;44.87;;;;;;;;;;5052725;28;20255;-80
2022/12/24 03:50:13;;;;;;;94.40;42.70;;;;;;;;;;5059745;28;20190;-81
2022/12/24 03:52:39;;;;;;;89.70;40.40;;;;;;;;;;5058651;28;20307;-82
2022/12/24 03:55:05;;;;;;;131.23;46.90;;;;;;;;;;5055173;28;20220;-81
2022/12/24 03:57:31;;;;;;;140.27;51.47;;;;;;;;;;5051891;28;20288;-81
2022/12/24 03:59:57;;;;;;;107.77;43.83;;;;;;;;;;5067919;28;20620;-80
2022/12/24 04:02:23;;;;;;;95.73;42.77;;;;;;;;;;5062778;28;20192;-79
2022/12/24 04:04:49;;;;;;;91.30;40.43;;;;;;;;;;5059689;28;20274;-78
2022/12/24 04:07:15;;;;;;;119.83;44.03;;;;;;;;;;5055900;28;20304;-79
2022/12/24 04:09:41;;;;;;;99.83;40.80;;;;;;;;;;5070088;28;20290;-80
2022/12/24 04:12:08;;;;;;;225.03;53.87;;;;;;;;;;5070487;28;20173;-79
2022/12/24 04:14:34;;;;;;;98.47;41.77;;;;;;;;;;5059838;28;20174;-78
2022/12/24 04:17:00;;;;;;;130.93;48.17;;;;;;;;;;5054882;28;20193;-79
2022/12/24 04:19:26;;;;;;;111.83;47.23;;;;;;;;;;5061520;28;20193;-80
2022/12/24 04:21:52;;;;;;;195.23;54.67;;;;;;;;;;5066531;28;20192;-81
2022/12/24 04:24:18;;;;;;;120.67;49.70;;;;;;;;;;5051638;28;20269;-81
2022/12/24 04:26:44;;;;;;;112.07;47.30;;;;;;;;;;5052934;28;20657;-77
2022/12/24 04:29:10;;;;;;;108.50;48.57;;;;;;;;;;5053665;28;20205;-80
2022/12/24 04:31:36;;;;;;;141.43;52.70;;;;;;;;;;5062042;28;20188;-78
2022/12/24 04:34:02;;;;;;;175.17;55.53;;;;;;;;;;5066821;28;20189;-80
2022/12/24 04:36:28;;;;;;;95.97;46.40;;;;;;;;;;5050700;28;20253;-78
2022/12/24 04:38:54;;;;;;;94.37;47.33;;;;;;;;;;5069436;28;20242;-83
2022/12/24 04:41:21;;;;;;;119.63;50.73;;;;;;;;;;5055768;28;20217;-78
2022/12/24 04:43:47;;;;;;;92.17;45.73;;;;;;;;;;5063742;28;20185;-80
2022/12/24 04:46:17;;;;;;;87.63;44.40;;;;;;;;;;5069834;28;20189;-80
2022/12/24 04:48:44;;;;;;;105.83;46.87;;;;;;;;;;5054328;28;20312;-80
2022/12/24 04:51:11;;;;;;;92.47;44.40;;;;;;;;;;5064914;28;20209;-80
2022/12/24 04:53:37;;;;;;;92.90;43.67;;;;;;;;;;5053227;28;20174;-78
2022/12/24 04:56:03;;;;;;;91.70;44.03;;;;;;;;;;5062163;28;20212;-80
2022/12/24 04:58:29;;;;;;;91.67;44.07;;;;;;;;;;5054639;28;20315;-78
2022/12/24 05:00:56;;;;;;;109.40;44.13;;;;;;;;;;5056441;28;20192;-79
2022/12/24 05:03:22;;;;;;;79.97;40.87;;;;;;;;;;5053867;28;20181;-81
2022/12/24 05:05:48;;;;;;;108.33;45.70;;;;;;;;;;5056957;28;20172;-80
2022/12/24 05:08:14;;;;;;;96.27;43.00;;;;;;;;;;5067513;28;20295;-79
2022/12/24 05:10:40;;;;;;;73.23;39.63;;;;;;;;;;5066753;28;20182;-80
2022/12/24 05:13:06;;;;;;;108.47;43.17;;;;;;;;;;5055743;28;20188;-80
2022/12/24 05:15:32;;;;;;;100.47;45.23;;;;;;;;;;5055430;28;20681;-79
2022/12/24 05:17:58;;;;;;;84.47;42.10;;;;;;;;;;5075360;28;20181;-80
2022/12/24 05:20:24;;;;;;;71.97;39.13;;;;;;;;;;5072738;28;20185;-82
2022/12/24 05:28:21;;;;;;;86.47;39.97;;;;;;;;;;5060816;28;20219;-81
2022/12/24 05:30:47;;;;;;;75.10;39.97;;;;;;;;;;5073751;28;20712;-80
2022/12/24 05:33:13;;;;;;;96.93;43.30;;;;;;;;;;5066326;28;20182;-78
2022/12/24 05:35:39;;;;;;;84.10;40.20;;;;;;;;;;5072796;28;20225;-79
2022/12/24 05:38:05;;;;;;;59.43;34.33;;;;;;;;;;5062313;28;20634;-82
2022/12/24 05:40:31;;;;;;;74.20;36.70;;;;;;;;;;5056522;28;20273;-82
2022/12/24 05:42:57;;;;;;;55.17;32.90;;;;;;;;;;5073376;28;20238;-80
2022/12/24 05:45:23;;;;;;;62.73;33.47;;;;;;;;;;5058477;28;20169;-83
2022/12/24 05:47:49;;;;;;;66.67;35.70;;;;;;;;;;5070220;28;20198;-79
2022/12/24 05:50:15;;;;;;;56.57;31.30;;;;;;;;;;5057416;28;20572;-79
2022/12/24 05:52:41;;;;;;;65.03;33.83;;;;;;;;;;5060204;28;20219;-83
2022/12/24 05:55:08;;;;;;;59.33;31.83;;;;;;;;;;5072824;28;20181;-80
2022/12/24 05:57:34;;;;;;;61.17;32.23;;;;;;;;;;5072554;28;20185;-82
2022/12/24 06:00:00;;;;;;;64.10;31.07;;;;;;;;;;5054728;28;20182;-83
2022/12/24 06:02:26;;;;;;;53.97;30.37;;;;;;;;;;5060676;28;20276;-80
2022/12/24 06:04:52;;;;;;;60.00;31.47;;;;;;;;;;5060335;28;20178;-82
2022/12/24 06:07:17;;;;;;;48.60;28.07;;;;;;;;;;5060600;28;20188;-80
2022/12/24 06:09:43;;;;;;;75.17;33.50;;;;;;;;;;5070680;28;20181;-83
2022/12/24 06:12:09;;;;;;;57.43;30.10;;;;;;;;;;5058992;28;20212;-80
2022/12/24 06:14:35;;;;;;;48.90;29.17;;;;;;;;;;5070717;28;20284;-80
2022/12/24 06:17:01;;;;;;;56.10;29.67;;;;;;;;;;5063397;28;20185;-82
2022/12/24 06:19:27;;;;;;;59.70;30.57;;;;;;;;;;5061426;28;20181;-79
2022/12/24 06:21:53;;;;;;;58.77;29.67;;;;;;;;;;5071169;28;20180;-82
2022/12/24 06:24:19;;;;;;;43.60;26.33;;;;;;;;;;5083349;28;20515;-82
2022/12/24 06:26:45;;;;;;;41.67;25.60;;;;;;;;;;5067041;28;20272;-80
2022/12/24 06:29:11;;;;;;;51.10;27.83;;;;;;;;;;5066284;28;20209;-81
2022/12/24 06:31:37;;;;;;;38.40;24.63;;;;;;;;;;5070758;28;20185;-82
2022/12/24 06:34:03;;;;;;;37.00;25.30;;;;;;;;;;5071425;28;20550;-82
2022/12/24 06:36:30;;;;;;;43.07;24.93;;;;;;;;;;5053411;28;20221;-82
2022/12/24 06:38:56;;;;;;;42.73;25.60;;;;;;;;;;5055309;28;20194;-80
2022/12/24 06:41:22;;;;;;;39.80;25.10;;;;;;;;;;5059398;28;20512;-79
2022/12/24 06:43:49;;;;;;;46.37;24.97;;;;;;;;;;5059856;28;20182;-80
2022/12/24 06:46:16;;;;;;;37.70;24.30;;;;;;;;;;5058577;28;20679;-80
2022/12/24 06:48:43;;;;;;;39.20;24.37;;;;;;;;;;5069503;28;20248;-78
2022/12/24 06:51:09;;;;;;;51.90;25.90;;;;;;;;;;5070567;28;20185;-80
2022/12/24 06:53:35;;;;;;;40.23;24.30;;;;;;;;;;5070277;28;20205;-79
2022/12/24 06:56:05;;;;;;;43.27;24.83;;;;;;;;;;5071643;28;20614;-81
2022/12/24 06:58:31;;;;;;;45.43;24.53;;;;;;;;;;5070825;28;20182;-79
2022/12/24 07:00:57;;;;;;;41.33;23.87;;;;;;;;;;5054533;28;20186;-80
2022/12/24 07:03:23;;;;;;;52.20;25.80;;;;;;;;;;5056061;28;20195;-78
2022/12/24 07:05:49;;;;;;;36.40;22.57;;;;;;;;;;5053224;28;20523;-77
2022/12/24 07:08:15;;;;;;;44.33;23.80;;;;;;;;;;5054517;28;20212;-79
2022/12/24 07:10:41;;;;;;;37.27;22.80;;;;;;;;;;5056539;28;20186;-80
2022/12/24 07:13:07;;;;;;;39.73;23.53;;;;;;;;;;5055156;28;20188;-78
2022/12/24 07:15:33;;;;;;;39.03;22.17;;;;;;;;;;5064183;28;20176;-78
2022/12/24 07:17:59;;;;;;;45.33;23.33;;;;;;;;;;5067596;28;20620;-79
2022/12/24 07:20:25;;;;;;;38.97;22.23;;;;;;;;;;5066223;28;20180;-79
2022/12/24 07:22:51;;;;;;;38.47;22.10;;;;;;;;;;5070374;28;20192;-81
2022/12/24 07:25:17;;;;;;;37.07;22.43;;;;;;;;;;5069625;28;20243;-81
2022/12/24 07:27:43;;;;;;;44.30;23.33;;;;;;;;;;5068319;28;20194;-79
2022/12/24 07:30:09;;;;;;;43.87;23.53;;;;;;;;;;5071368;28;20191;-79
2022/12/24 07:32:35;;;;;;;44.17;22.80;;;;;;;;;;5061400;28;20182;-81
2022/12/24 07:35:02;;;;;;;37.53;22.83;;;;;;;;;;5063133;28;20279;-79
2022/12/24 07:37:28;;;;;;;37.57;22.63;;;;;;;;;;5069550;28;20696;-77
2022/12/24 07:39:54;;;;;;;40.07;22.77;;;;;;;;;;5071610;28;20220;-80
2022/12/24 07:42:19;;;;;;;40.20;23.60;;;;;;;;;;5052481;28;20261;-79
2022/12/24 07:44:45;;;;;;;47.33;23.67;;;;;;;;;;5055220;28;20671;-82
2022/12/24 07:47:11;;;;;;;35.13;22.27;;;;;;;;;;5060424;28;20181;-78
2022/12/24 07:49:37;;;;;;;40.43;23.97;;;;;;;;;;5058928;28;20232;-79
2022/12/24 07:52:04;;;;;;;48.70;24.77;;;;;;;;;;5052555;28;20195;-81
2022/12/24 07:54:29;;;;;;;48.70;26.43;;;;;;;;;;5067596;28;20287;-78
2022/12/24 07:56:56;;;;;;;41.80;25.13;;;;;;;;;;5054097;28;20738;-79
2022/12/24 07:59:22;;;;;;;50.80;25.87;;;;;;;;;;5054378;28;20674;-79
2022/12/24 08:01:47;;;;;;;44.47;26.13;;;;;;;;;;5057193;28;20216;-79
2022/12/24 08:04:14;;;;;;;48.93;25.03;;;;;;;;;;5055453;28;20294;-79
2022/12/24 08:06:40;;;;;;;55.27;25.80;;;;;;;;;;5070128;28;20177;-80
2022/12/24 08:09:06;;;;;;;47.00;22.60;;;;;;;;;;5065001;28;20203;-81
2022/12/24 08:11:32;;;;;;;40.93;23.53;;;;;;;;;;5069575;28;20221;-80
2022/12/24 08:13:58;;;;;;;47.30;24.17;;;;;;;;;;5068941;28;20209;-81
2022/12/24 08:16:24;;;;;;;47.67;23.90;;;;;;;;;;5069681;28;20183;-80
2022/12/24 08:18:50;;;;;;;42.47;22.43;;;;;;;;;;5067388;28;20249;-81
2022/12/24 08:21:16;;;;;;;40.20;22.67;;;;;;;;;;5057631;28;20638;-80
2022/12/24 08:23:42;;;;;;;41.03;23.30;;;;;;;;;;5080647;28;20189;-81
2022/12/24 08:26:09;;;;;;;44.17;24.27;;;;;;;;;;5069617;28;20191;-81
2022/12/24 08:28:35;;;;;;;40.93;23.77;;;;;;;;;;5071019;28;20207;-81
2022/12/24 08:31:01;;;;;;;40.83;22.90;;;;;;;;;;5056509;28;20272;-80
2022/12/24 08:33:27;;;;;;;35.93;22.60;;;;;;;;;;5066245;28;20168;-79
2022/12/24 08:35:54;;;;;;;40.53;23.93;;;;;;;;;;5057877;28;20728;-79
2022/12/24 08:38:20;;;;;;;42.60;24.53;;;;;;;;;;5053641;28;20181;-81
2022/12/24 08:40:48;;;;;;;43.70;25.27;;;;;;;;;;5056211;28;20212;-80
2022/12/24 08:43:14;;;;;;;33.37;22.20;;;;;;;;;;5052031;28;20185;-80
2022/12/24 08:45:40;;;;;;;37.70;21.17;;;;;;;;;;5071201;28;20218;-80
2022/12/24 08:48:07;;;;;;;32.07;20.90;;;;;;;;;;5053715;28;20202;-81
2022/12/24 08:50:33;;;;;;;39.10;22.07;;;;;;;;;;5064746;28;20186;-80
2022/12/24 08:52:59;;;;;;;31.87;20.33;;;;;;;;;;5060554;28;20188;-81
2022/12/24 08:55:25;;;;;;;29.87;19.30;;;;;;;;;;5058069;28;20223;-80
2022/12/24 08:57:51;;;;;;;36.30;21.70;;;;;;;;;;5055822;28;20256;-80
2022/12/24 09:00:17;;;;;;;35.97;22.00;;;;;;;;;;5072876;28;20649;-79
2022/12/24 09:02:43;;;;;;;36.40;20.83;;;;;;;;;;5064860;28;20192;-80
2022/12/24 09:05:09;;;;;;;31.13;20.10;;;;;;;;;;5060229;28;20257;-80
2022/12/24 09:07:35;;;;;;;29.93;19.30;;;;;;;;;;5067270;28;20676;-79
2022/12/24 09:10:01;;;;;;;37.13;22.33;;;;;;;;;;5070218;28;20643;-79
2022/12/24 09:12:27;;;;;;;51.37;27.47;;;;;;;;;;5059429;28;20205;-84
2022/12/24 09:14:53;;;;;;;61.03;31.70;;;;;;;;;;5057409;28;20284;-80
2022/12/24 09:17:20;;;;;;;51.83;29.93;;;;;;;;;;5056468;28;20213;-81
2022/12/24 09:19:46;;;;;;;43.03;26.60;;;;;;;;;;5059673;28;20193;-79
2022/12/24 09:22:12;;;;;;;43.17;25.30;;;;;;;;;;5070769;28;20618;-79
2022/12/24 09:24:38;;;;;;;39.53;24.37;;;;;;;;;;5075004;28;20238;-80
2022/12/24 09:27:04;;;;;;;37.80;22.03;;;;;;;;;;5072658;28;20189;-80
2022/12/24 09:29:30;;;;;;;36.37;23.13;;;;;;;;;;5061931;28;20204;-81
2022/12/24 09:31:56;;;;;;;36.73;23.63;;;;;;;;;;5065042;28;20614;-80
2022/12/24 09:34:23;;;;;;;36.73;23.60;;;;;;;;;;5071752;28;20185;-80
2022/12/24 09:36:50;;;;;;;41.27;23.73;;;;;;;;;;5062294;28;20323;-80
2022/12/24 09:39:16;;;;;;;35.53;23.13;;;;;;;;;;5057450;28;20174;-80
2022/12/24 09:42:08;;;;;;;38.47;25.47;;;;;;;;;;5058611;28;20178;-81
2022/12/24 09:44:34;;;;;;;39.57;24.20;;;;;;;;;;5065417;28;20199;-81
2022/12/24 09:47:03;;;;;;;31.93;19.17;;;;;;;;;;5066567;28;20182;-81
2022/12/24 09:49:37;;;;;;;31.37;20.07;;;;;;;;;;5067728;28;20208;-81
2022/12/24 09:52:07;;;;;;;32.40;20.80;;;;;;;;;;5071344;28;20215;-81
2022/12/24 09:54:36;;;;;;;30.03;19.70;;;;;;;;;;5066304;28;20185;-81
2022/12/24 09:57:06;;;;;;;28.20;18.13;;;;;;;;;;5067799;28;20178;-80
2022/12/24 09:59:39;;;;;;;28.53;19.33;;;;;;;;;;5069750;28;20189;-80
2022/12/24 10:02:09;;;;;;;35.87;24.33;;;;;;;;;;5070478;28;20182;-82
2022/12/24 10:04:35;;;;;;;24.77;17.27;;;;;;;;;;5063355;28;20185;-80
2022/12/24 10:07:19;;;;;;;32.33;24.07;;;;;;;;;;5070591;28;20177;-80
2022/12/24 10:09:45;;;;;;;30.00;22.67;;;;;;;;;;5073171;28;20216;-81
2022/12/24 10:12:18;;;;;;;27.63;21.33;;;;;;;;;;5066855;28;20701;-80
2022/12/24 10:14:44;;;;;;;23.00;16.97;;;;;;;;;;5062531;28;20590;-80
2022/12/24 10:17:20;;;;;;;23.07;15.57;;;;;;;;;;5055821;28;20174;-80
2022/12/24 10:19:59;;;;;;;27.03;19.40;;;;;;;;;;5071141;28;20326;-81
2022/12/24 10:22:31;;;;;;;31.23;19.70;;;;;;;;;;5053677;28;20643;-80
2022/12/24 10:25:04;;;;;;;29.10;18.93;;;;;;;;;;5090985;28;20186;-80
2022/12/24 10:27:34;;;;;;;24.20;17.90;;;;;;;;;;5050788;28;20542;-80
2022/12/24 10:30:02;;;;;;;24.87;19.00;;;;;;;;;;5059160;28;20186;-81
2022/12/24 10:32:31;;;;;;;25.83;17.53;;;;;;;;;;5065644;28;20193;-80
2022/12/24 10:34:57;;;;;;;26.90;18.43;;;;;;;;;;5063297;28;20185;-81
2022/12/24 10:37:24;;;;;;;25.10;18.23;;;;;;;;;;5059745;28;20228;-79
2022/12/24 10:39:51;;;;;;;25.47;17.17;;;;;;;;;;5078557;28;20180;-81
2022/12/24 10:42:17;;;;;;;30.70;22.57;;;;;;;;;;5062963;28;20191;-80
2022/12/24 10:44:46;;;;;;;29.70;20.10;;;;;;;;;;5066067;28;20185;-82
2022/12/24 10:47:13;;;;;;;25.97;20.33;;;;;;;;;;5070718;28;20181;-81
2022/12/24 10:49:41;;;;;;;24.60;18.40;;;;;;;;;;5066638;28;20586;-81
2022/12/24 10:52:12;;;;;;;28.43;20.20;;;;;;;;;;5068890;28;20241;-80
2022/12/24 10:54:58;;;;;;;25.07;18.77;;;;;;;;;;5052714;28;20262;-81
2022/12/24 10:57:25;;;;;;;28.17;18.77;;;;;;;;;;5066519;28;20180;-81
2022/12/24 10:59:55;;;;;;;40.60;25.63;;;;;;;;;;5068964;28;20192;-80
2022/12/24 11:02:39;;;;;;;38.77;25.17;;;;;;;;;;5068082;28;20535;-81
2022/12/24 11:05:07;;;;;;;38.23;23.57;;;;;;;;;;5067378;28;20588;-82
2022/12/24 11:07:33;;;;;;;32.47;22.10;;;;;;;;;;5054757;28;20185;-82
2022/12/24 11:10:01;;;;;;;37.60;26.10;;;;;;;;;;5070567;28;20178;-81
2022/12/24 11:12:29;;;;;;;34.90;24.60;;;;;;;;;;5068831;28;20180;-81
2022/12/24 11:15:04;;;;;;;33.80;24.33;;;;;;;;;;5065526;28;20199;-81
2022/12/24 11:17:31;;;;;;;33.20;22.73;;;;;;;;;;5067244;28;20181;-83
2022/12/24 11:19:57;;;;;;;31.33;22.27;;;;;;;;;;5057633;28;20178;-83
2022/12/24 11:22:23;;;;;;;33.07;24.70;;;;;;;;;;5053492;28;20177;-84
2022/12/24 11:25:01;;;;;;;37.33;25.07;;;;;;;;;;5053171;28;20177;-83
2022/12/24 11:27:43;;;;;;;42.00;29.30;;;;;;;;;;5071466;28;20255;-83
2022/12/24 11:30:15;;;;;;;37.03;26.93;;;;;;;;;;5065385;28;20182;-83
2022/12/24 11:32:41;;;;;;;38.23;23.70;;;;;;;;;;5071815;28;20792;-83
2022/12/24 11:35:08;;;;;;;31.50;21.60;;;;;;;;;;5065481;28;20249;-82
2022/12/24 11:37:34;;;;;;;28.67;21.50;;;;;;;;;;5069774;28;20218;-82
2022/12/24 11:40:01;;;;;;;34.57;23.77;;;;;;;;;;5086260;28;20645;-83
2022/12/24 11:42:30;;;;;;;41.27;26.73;;;;;;;;;;5066809;28;20193;-85
2022/12/24 11:44:57;;;;;;;41.30;25.13;;;;;;;;;;5066834;28;20199;-82
2022/12/24 11:47:41;;;;;;;39.67;26.63;;;;;;;;;;5067441;28;20181;-82
2022/12/24 11:50:19;;;;;;;36.40;24.70;;;;;;;;;;5059328;28;20222;-82
2022/12/24 11:52:47;;;;;;;36.20;23.43;;;;;;;;;;5069969;28;20653;-82
2022/12/24 11:55:18;;;;;;;32.33;22.90;;;;;;;;;;5087912;28;20208;-82
2022/12/24 11:57:50;;;;;;;40.87;26.60;;;;;;;;;;5068853;28;20177;-82
2022/12/24 12:00:16;;;;;;;47.80;31.10;;;;;;;;;;5065441;28;20342;-82
2022/12/24 12:02:45;;;;;;;52.20;32.57;;;;;;;;;;5059247;28;20193;-82
2022/12/24 12:05:15;;;;;;;40.70;28.03;;;;;;;;;;5054682;28;20187;-80
2022/12/24 12:07:42;;;;;;;39.73;26.63;;;;;;;;;;5068256;28;20184;-81
2022/12/24 12:10:16;;;;;;;40.83;25.93;;;;;;;;;;5070572;28;20268;-81
2022/12/24 12:12:45;;;;;;;42.17;26.67;;;;;;;;;;5068979;28;20188;-81
2022/12/24 12:15:17;;;;;;;37.93;25.73;;;;;;;;;;5069875;28;20638;-82
2022/12/24 12:17:46;;;;;;;39.43;25.97;;;;;;;;;;5069693;28;20872;-82
2022/12/24 12:20:18;;;;;;;48.07;30.73;;;;;;;;;;5069104;28;20712;-81
2022/12/24 12:22:55;;;;;;;48.47;31.53;;;;;;;;;;5069056;28;20186;-82
2022/12/24 12:25:23;;;;;;;47.60;29.60;;;;;;;;;;5057831;28;20186;-81
2022/12/24 12:27:51;;;;;;;52.40;30.93;;;;;;;;;;5061525;28;20185;-84
2022/12/24 12:30:19;;;;;;;50.80;29.80;;;;;;;;;;5066010;28;20714;-81
2022/12/24 12:32:51;;;;;;;44.90;29.47;;;;;;;;;;5069891;28;20898;-81
2022/12/24 12:35:23;;;;;;;47.53;30.80;;;;;;;;;;5057595;28;20251;-83
2022/12/24 12:37:57;;;;;;;52.47;32.27;;;;;;;;;;5059420;28;20665;-81
2022/12/24 12:40:26;;;;;;;69.07;41.97;;;;;;;;;;5071037;28;20170;-81
2022/12/24 12:43:02;;;;;;;75.37;47.80;;;;;;;;;;5082784;28;20181;-82
2022/12/24 12:45:36;;;;;;;56.93;35.53;;;;;;;;;;5066301;28;20242;-80
2022/12/24 12:48:11;;;;;;;62.60;38.13;;;;;;;;;;5067240;28;20205;-81
2022/12/24 12:50:45;;;;;;;54.27;34.43;;;;;;;;;;5069650;28;20250;-81
2022/12/24 12:53:30;;;;;;;72.43;43.47;;;;;;;;;;5061690;28;20180;-81
2022/12/24 12:55:59;;;;;;;68.63;39.90;;;;;;;;;;5068641;28;20196;-81
2022/12/24 12:58:27;;;;;;;59.67;33.57;;;;;;;;;;5070318;28;20228;-80
2022/12/24 13:00:56;;;;;;;54.83;33.10;;;;;;;;;;5073655;28;20267;-80
2022/12/24 13:03:28;;;;;;;50.73;30.67;;;;;;;;;;5072401;28;20176;-80
2022/12/24 13:05:57;;;;;;;48.27;30.17;;;;;;;;;;5064880;28;20232;-81
2022/12/24 13:08:42;;;;;;;54.10;31.70;;;;;;;;;;5061215;28;20199;-80
2022/12/24 13:11:16;;;;;;;53.47;31.27;;;;;;;;;;5060056;28;20177;-80
2022/12/24 13:13:57;;;;;;;52.03;31.80;;;;;;;;;;5055134;28;20205;-85
2022/12/24 13:16:26;;;;;;;46.17;31.50;;;;;;;;;;5086942;28;20264;-84
2022/12/24 13:19:02;;;;;;;49.77;30.03;;;;;;;;;;5054421;28;20193;-83
2022/12/24 13:21:29;;;;;;;54.53;32.00;;;;;;;;;;5074902;28;20279;-83
2022/12/24 13:24:06;;;;;;;54.33;32.30;;;;;;;;;;5065019;28;20192;-84
2022/12/24 13:26:32;;;;;;;56.03;33.53;;;;;;;;;;5064506;28;20196;-83
2022/12/24 13:29:21;;;;;;;54.03;31.87;;;;;;;;;;5073924;28;20213;-84
2022/12/24 13:31:47;;;;;;;62.37;33.23;;;;;;;;;;5072670;28;20985;-84
2022/12/24 13:34:35;;;;;;;58.33;33.07;;;;;;;;;;5069551;28;20181;-84
2022/12/24 13:37:03;;;;;;;57.50;33.37;;;;;;;;;;5071458;28;20221;-83
2022/12/24 13:39:29;;;;;;;55.63;33.97;;;;;;;;;;5074122;28;20290;-84
2022/12/24 13:41:55;;;;;;;64.57;35.67;;;;;;;;;;5069157;28;20181;-84
2022/12/24 13:44:22;;;;;;;62.20;36.70;;;;;;;;;;5067136;28;20548;-83
2022/12/24 13:46:55;;;;;;;73.83;41.10;;;;;;;;;;5056400;28;20186;-81
2022/12/24 13:49:26;;;;;;;71.80;45.90;;;;;;;;;;5055221;28;20624;-82
2022/12/24 13:52:04;;;;;;;71.80;44.00;;;;;;;;;;5057127;28;20178;-82
2022/12/24 13:54:30;;;;;;;68.00;42.80;;;;;;;;;;5063303;28;20185;-82
2022/12/24 13:56:57;;;;;;;65.27;38.20;;;;;;;;;;5056314;28;20193;-81
2022/12/24 13:59:34;;;;;;;73.33;40.20;;;;;;;;;;5056284;28;20188;-82
2022/12/24 14:02:01;;;;;;;67.60;37.87;;;;;;;;;;5055889;28;20262;-81
2022/12/24 14:04:29;;;;;;;72.13;39.30;;;;;;;;;;5065130;28;20213;-82
2022/12/24 14:06:58;;;;;;;65.03;36.47;;;;;;;;;;5077304;28;20170;-83
2022/12/24 14:09:25;;;;;;;65.03;38.13;;;;;;;;;;5062232;28;20207;-83
2022/12/24 14:12:03;;;;;;;71.50;38.03;;;;;;;;;;5071464;28;20191;-84
2022/12/24 14:14:31;;;;;;;72.57;38.07;;;;;;;;;;5072020;28;21145;-83
2022/12/24 14:16:58;;;;;;;64.97;35.27;;;;;;;;;;5070417;28;20181;-83
2022/12/24 14:19:29;;;;;;;75.37;38.23;;;;;;;;;;5072476;28;20575;-81
2022/12/24 14:22:01;;;;;;;75.93;38.10;;;;;;;;;;5058400;28;20255;-84
2022/12/24 14:24:31;;;;;;;72.63;37.70;;;;;;;;;;5067188;28;20214;-83
2022/12/24 14:27:00;;;;;;;76.93;38.53;;;;;;;;;;5067217;28;20247;-83
2022/12/24 14:29:26;;;;;;;69.73;38.73;;;;;;;;;;5059338;28;20303;-83